Terminal Aerodrome Forecast
Issued by NWS

Home | Current Version | Previous Version | Text Only | Print | Product List | Glossary On
Versions: 1 2 3 4 5 6 7 8 9 10 11 12 13 14
099
FTUS46 KSGX 251729
TAFSNA
TAF
KSNA 251729Z 2518/2618 22005KT P6SM SKC
     FM252100 23008KT P6SM FEW035 BKN200
     FM260100 21005KT P6SM SCT035 BKN100
     FM260600 VRB04KT P6SM VCSH SCT025 BKN035
     FM261000 VRB04KT P6SM -SHRA BKN025 OVC035
     FM261600 VRB05KT P6SM VCSH SCT025 BKN035=

USA.gov is the U.S. government's official web portal to all federal, state and local government web resources and services.